sensor_id;sensor_type;location;lat;lon;timestamp;P1;durP1;ratioP1;P2;durP2;ratioP2
22040;SDS011;11184;52.444;13.578;2023-08-17T00:00:10;9.25;;;2.47;;
22040;SDS011;11184;52.444;13.578;2023-08-17T00:02:57;6.22;;;2.45;;
22040;SDS011;11184;52.444;13.578;2023-08-17T00:05:42;2.92;;;2.03;;
22040;SDS011;11184;52.444;13.578;2023-08-17T00:08:26;2.35;;;2.15;;
22040;SDS011;11184;52.444;13.578;2023-08-17T00:11:11;10.43;;;2.75;;
22040;SDS011;11184;52.444;13.578;2023-08-17T00:13:56;3.42;;;1.70;;
22040;SDS011;11184;52.444;13.578;2023-08-17T00:16:40;3.10;;;2.38;;
22040;SDS011;11184;52.444;13.578;2023-08-17T00:19:25;3.65;;;2.00;;
22040;SDS011;11184;52.444;13.578;2023-08-17T00:22:10;6.10;;;2.22;;
22040;SDS011;11184;52.444;13.578;2023-08-17T00:24:54;3.05;;;2.75;;
22040;SDS011;11184;52.444;13.578;2023-08-17T00:27:39;5.53;;;2.35;;
22040;SDS011;11184;52.444;13.578;2023-08-17T00:30:24;4.53;;;2.38;;
22040;SDS011;11184;52.444;13.578;2023-08-17T00:33:08;4.50;;;2.65;;
22040;SDS011;11184;52.444;13.578;2023-08-17T00:35:53;5.80;;;2.53;;
22040;SDS011;11184;52.444;13.578;2023-08-17T00:38:38;3.25;;;1.95;;
22040;SDS011;11184;52.444;13.578;2023-08-17T00:41:23;5.05;;;2.60;;
22040;SDS011;11184;52.444;13.578;2023-08-17T00:44:07;5.68;;;2.58;;
22040;SDS011;11184;52.444;13.578;2023-08-17T00:46:52;8.55;;;2.65;;
22040;SDS011;11184;52.444;13.578;2023-08-17T00:49:36;4.53;;;2.67;;
22040;SDS011;11184;52.444;13.578;2023-08-17T00:52:22;4.72;;;2.78;;
22040;SDS011;11184;52.444;13.578;2023-08-17T00:55:07;3.22;;;2.53;;
22040;SDS011;11184;52.444;13.578;2023-08-17T00:57:53;6.88;;;2.70;;
22040;SDS011;11184;52.444;13.578;2023-08-17T01:00:37;5.65;;;3.53;;
22040;SDS011;11184;52.444;13.578;2023-08-17T01:03:22;4.18;;;3.35;;
22040;SDS011;11184;52.444;13.578;2023-08-17T01:06:08;5.47;;;2.60;;
22040;SDS011;11184;52.444;13.578;2023-08-17T01:08:53;5.85;;;3.10;;
22040;SDS011;11184;52.444;13.578;2023-08-17T01:11:45;6.38;;;2.95;;
22040;SDS011;11184;52.444;13.578;2023-08-17T01:14:33;3.45;;;2.72;;
22040;SDS011;11184;52.444;13.578;2023-08-17T01:17:22;7.10;;;2.72;;
22040;SDS011;11184;52.444;13.578;2023-08-17T01:20:09;3.95;;;2.92;;
22040;SDS011;11184;52.444;13.578;2023-08-17T01:22:56;4.00;;;2.47;;
22040;SDS011;11184;52.444;13.578;2023-08-17T01:25:42;5.72;;;3.17;;
22040;SDS011;11184;52.444;13.578;2023-08-17T01:28:27;5.95;;;2.83;;
22040;SDS011;11184;52.444;13.578;2023-08-17T01:31:14;6.80;;;3.05;;
22040;SDS011;11184;52.444;13.578;2023-08-17T01:34:04;5.68;;;3.03;;
22040;SDS011;11184;52.444;13.578;2023-08-17T01:36:53;4.63;;;2.40;;
22040;SDS011;11184;52.444;13.578;2023-08-17T01:39:42;5.07;;;2.15;;
22040;SDS011;11184;52.444;13.578;2023-08-17T01:42:28;3.72;;;3.38;;
22040;SDS011;11184;52.444;13.578;2023-08-17T01:45:13;4.05;;;3.00;;
22040;SDS011;11184;52.444;13.578;2023-08-17T01:47:58;4.25;;;3.25;;
22040;SDS011;11184;52.444;13.578;2023-08-17T01:50:42;3.00;;;2.53;;
22040;SDS011;11184;52.444;13.578;2023-08-17T01:53:27;8.30;;;2.92;;
22040;SDS011;11184;52.444;13.578;2023-08-17T01:56:12;4.05;;;2.40;;
22040;SDS011;11184;52.444;13.578;2023-08-17T01:58:56;4.22;;;2.97;;
22040;SDS011;11184;52.444;13.578;2023-08-17T02:01:40;6.60;;;3.58;;
22040;SDS011;11184;52.444;13.578;2023-08-17T02:04:25;6.30;;;3.05;;
22040;SDS011;11184;52.444;13.578;2023-08-17T02:07:10;4.43;;;2.65;;
22040;SDS011;11184;52.444;13.578;2023-08-17T02:09:54;5.60;;;3.13;;
22040;SDS011;11184;52.444;13.578;2023-08-17T02:12:39;4.88;;;3.17;;
22040;SDS011;11184;52.444;13.578;2023-08-17T02:15:24;4.70;;;2.63;;
22040;SDS011;11184;52.444;13.578;2023-08-17T02:18:08;4.25;;;3.45;;
22040;SDS011;11184;52.444;13.578;2023-08-17T02:20:53;4.85;;;3.17;;
22040;SDS011;11184;52.444;13.578;2023-08-17T02:23:38;4.95;;;2.88;;
22040;SDS011;11184;52.444;13.578;2023-08-17T02:26:22;2.70;;;2.25;;
22040;SDS011;11184;52.444;13.578;2023-08-17T02:29:07;8.57;;;2.83;;
22040;SDS011;11184;52.444;13.578;2023-08-17T02:31:52;3.05;;;2.58;;
22040;SDS011;11184;52.444;13.578;2023-08-17T02:34:36;4.38;;;2.75;;
22040;SDS011;11184;52.444;13.578;2023-08-17T02:37:21;4.35;;;3.17;;
22040;SDS011;11184;52.444;13.578;2023-08-17T02:40:05;8.13;;;3.15;;
22040;SDS011;11184;52.444;13.578;2023-08-17T02:42:51;3.78;;;2.92;;
22040;SDS011;11184;52.444;13.578;2023-08-17T02:45:35;5.07;;;3.08;;
22040;SDS011;11184;52.444;13.578;2023-08-17T02:48:20;5.25;;;3.25;;
22040;SDS011;11184;52.444;13.578;2023-08-17T02:51:04;5.07;;;2.70;;
22040;SDS011;11184;52.444;13.578;2023-08-17T02:53:49;4.47;;;2.25;;
22040;SDS011;11184;52.444;13.578;2023-08-17T02:56:33;6.68;;;2.67;;
22040;SDS011;11184;52.444;13.578;2023-08-17T02:59:18;7.22;;;3.63;;
22040;SDS011;11184;52.444;13.578;2023-08-17T03:02:03;4.18;;;2.60;;
22040;SDS011;11184;52.444;13.578;2023-08-17T03:04:47;3.15;;;2.50;;
22040;SDS011;11184;52.444;13.578;2023-08-17T03:07:32;8.88;;;2.88;;
22040;SDS011;11184;52.444;13.578;2023-08-17T03:10:16;7.38;;;2.92;;
22040;SDS011;11184;52.444;13.578;2023-08-17T03:13:01;3.40;;;3.05;;
22040;SDS011;11184;52.444;13.578;2023-08-17T03:15:46;5.28;;;2.72;;
22040;SDS011;11184;52.444;13.578;2023-08-17T03:18:31;5.25;;;2.67;;
22040;SDS011;11184;52.444;13.578;2023-08-17T03:21:15;2.63;;;2.38;;
22040;SDS011;11184;52.444;13.578;2023-08-17T03:24:01;7.20;;;3.22;;
22040;SDS011;11184;52.444;13.578;2023-08-17T03:26:45;7.30;;;2.67;;
22040;SDS011;11184;52.444;13.578;2023-08-17T03:29:30;3.83;;;2.20;;
22040;SDS011;11184;52.444;13.578;2023-08-17T03:32:14;4.78;;;2.80;;
22040;SDS011;11184;52.444;13.578;2023-08-17T03:34:59;6.53;;;2.85;;
22040;SDS011;11184;52.444;13.578;2023-08-17T03:37:44;4.70;;;3.20;;
22040;SDS011;11184;52.444;13.578;2023-08-17T03:40:29;7.80;;;2.75;;
22040;SDS011;11184;52.444;13.578;2023-08-17T03:43:14;5.47;;;2.50;;
22040;SDS011;11184;52.444;13.578;2023-08-17T03:45:58;7.38;;;2.90;;
22040;SDS011;11184;52.444;13.578;2023-08-17T03:48:43;3.60;;;2.40;;
22040;SDS011;11184;52.444;13.578;2023-08-17T03:51:28;4.78;;;2.60;;
22040;SDS011;11184;52.444;13.578;2023-08-17T03:54:12;6.85;;;2.60;;
22040;SDS011;11184;52.444;13.578;2023-08-17T03:56:57;6.18;;;2.47;;
22040;SDS011;11184;52.444;13.578;2023-08-17T03:59:42;6.13;;;3.03;;
22040;SDS011;11184;52.444;13.578;2023-08-17T04:02:26;5.85;;;2.35;;
22040;SDS011;11184;52.444;13.578;2023-08-17T04:05:11;2.58;;;2.08;;
22040;SDS011;11184;52.444;13.578;2023-08-17T04:07:56;3.50;;;2.42;;
22040;SDS011;11184;52.444;13.578;2023-08-17T04:10:45;6.60;;;2.97;;
22040;SDS011;11184;52.444;13.578;2023-08-17T04:13:30;4.53;;;2.50;;
22040;SDS011;11184;52.444;13.578;2023-08-17T04:16:14;4.60;;;2.90;;
22040;SDS011;11184;52.444;13.578;2023-08-17T04:18:59;4.45;;;1.77;;
22040;SDS011;11184;52.444;13.578;2023-08-17T04:21:43;5.72;;;2.70;;
22040;SDS011;11184;52.444;13.578;2023-08-17T04:24:28;5.30;;;2.65;;
22040;SDS011;11184;52.444;13.578;2023-08-17T04:27:13;7.90;;;2.15;;
22040;SDS011;11184;52.444;13.578;2023-08-17T04:29:57;6.00;;;2.25;;
22040;SDS011;11184;52.444;13.578;2023-08-17T04:32:42;4.22;;;2.30;;
22040;SDS011;11184;52.444;13.578;2023-08-17T04:35:26;3.13;;;1.80;;
22040;SDS011;11184;52.444;13.578;2023-08-17T04:38:11;4.47;;;1.75;;
22040;SDS011;11184;52.444;13.578;2023-08-17T04:40:56;4.80;;;2.00;;
22040;SDS011;11184;52.444;13.578;2023-08-17T04:43:40;5.57;;;2.15;;
22040;SDS011;11184;52.444;13.578;2023-08-17T04:46:26;2.85;;;1.92;;
22040;SDS011;11184;52.444;13.578;2023-08-17T04:49:11;4.63;;;2.45;;
22040;SDS011;11184;52.444;13.578;2023-08-17T04:51:56;4.85;;;1.75;;
22040;SDS011;11184;52.444;13.578;2023-08-17T04:54:40;4.72;;;1.75;;
22040;SDS011;11184;52.444;13.578;2023-08-17T04:57:25;1.90;;;1.70;;
22040;SDS011;11184;52.444;13.578;2023-08-17T05:00:12;3.70;;;2.17;;
22040;SDS011;11184;52.444;13.578;2023-08-17T05:02:57;2.40;;;2.17;;
22040;SDS011;11184;52.444;13.578;2023-08-17T05:05:41;3.88;;;1.85;;
22040;SDS011;11184;52.444;13.578;2023-08-17T05:08:26;3.00;;;2.08;;
22040;SDS011;11184;52.444;13.578;2023-08-17T05:11:11;8.23;;;1.80;;
22040;SDS011;11184;52.444;13.578;2023-08-17T05:13:55;4.03;;;1.88;;
22040;SDS011;11184;52.444;13.578;2023-08-17T05:16:40;4.60;;;1.80;;
22040;SDS011;11184;52.444;13.578;2023-08-17T05:19:25;6.28;;;1.40;;
22040;SDS011;11184;52.444;13.578;2023-08-17T05:22:10;3.33;;;1.60;;
22040;SDS011;11184;52.444;13.578;2023-08-17T05:24:54;2.80;;;1.58;;
22040;SDS011;11184;52.444;13.578;2023-08-17T05:27:39;9.35;;;1.80;;
22040;SDS011;11184;52.444;13.578;2023-08-17T05:30:24;9.55;;;1.88;;
22040;SDS011;11184;52.444;13.578;2023-08-17T05:33:08;2.05;;;1.77;;
22040;SDS011;11184;52.444;13.578;2023-08-17T05:35:54;1.77;;;1.17;;
22040;SDS011;11184;52.444;13.578;2023-08-17T05:38:38;2.40;;;1.48;;
22040;SDS011;11184;52.444;13.578;2023-08-17T05:41:23;2.25;;;1.58;;
22040;SDS011;11184;52.444;13.578;2023-08-17T05:44:07;3.38;;;1.80;;
22040;SDS011;11184;52.444;13.578;2023-08-17T05:46:53;3.00;;;1.55;;
22040;SDS011;11184;52.444;13.578;2023-08-17T05:49:38;4.65;;;1.52;;
22040;SDS011;11184;52.444;13.578;2023-08-17T05:52:22;4.68;;;2.10;;
22040;SDS011;11184;52.444;13.578;2023-08-17T05:55:07;3.35;;;1.73;;
22040;SDS011;11184;52.444;13.578;2023-08-17T05:57:52;5.47;;;2.58;;
22040;SDS011;11184;52.444;13.578;2023-08-17T06:00:36;6.70;;;2.22;;
22040;SDS011;11184;52.444;13.578;2023-08-17T06:03:21;2.55;;;1.40;;
22040;SDS011;11184;52.444;13.578;2023-08-17T06:06:06;2.15;;;1.60;;
22040;SDS011;11184;52.444;13.578;2023-08-17T06:08:51;1.40;;;1.30;;
22040;SDS011;11184;52.444;13.578;2023-08-17T06:11:35;3.22;;;1.48;;
22040;SDS011;11184;52.444;13.578;2023-08-17T06:14:20;3.60;;;1.52;;
22040;SDS011;11184;52.444;13.578;2023-08-17T06:17:06;6.13;;;1.70;;
22040;SDS011;11184;52.444;13.578;2023-08-17T06:19:50;2.20;;;1.70;;
22040;SDS011;11184;52.444;13.578;2023-08-17T06:22:35;3.08;;;1.60;;
22040;SDS011;11184;52.444;13.578;2023-08-17T06:25:19;2.85;;;2.35;;
22040;SDS011;11184;52.444;13.578;2023-08-17T06:28:05;7.55;;;1.92;;
22040;SDS011;11184;52.444;13.578;2023-08-17T06:30:53;2.95;;;1.83;;
22040;SDS011;11184;52.444;13.578;2023-08-17T06:33:38;2.17;;;1.63;;
22040;SDS011;11184;52.444;13.578;2023-08-17T06:36:23;2.22;;;1.50;;
22040;SDS011;11184;52.444;13.578;2023-08-17T06:39:08;2.15;;;1.35;;
22040;SDS011;11184;52.444;13.578;2023-08-17T06:41:53;11.95;;;2.63;;
22040;SDS011;11184;52.444;13.578;2023-08-17T06:44:38;6.05;;;1.58;;
22040;SDS011;11184;52.444;13.578;2023-08-17T06:47:22;3.88;;;2.03;;
22040;SDS011;11184;52.444;13.578;2023-08-17T06:50:07;4.43;;;2.17;;
22040;SDS011;11184;52.444;13.578;2023-08-17T06:52:52;3.45;;;1.42;;
22040;SDS011;11184;52.444;13.578;2023-08-17T06:55:37;3.97;;;1.15;;
22040;SDS011;11184;52.444;13.578;2023-08-17T06:58:21;3.22;;;1.60;;
22040;SDS011;11184;52.444;13.578;2023-08-17T07:01:06;3.72;;;1.70;;
22040;SDS011;11184;52.444;13.578;2023-08-17T07:03:51;3.80;;;1.85;;
22040;SDS011;11184;52.444;13.578;2023-08-17T07:06:35;4.55;;;1.33;;
22040;SDS011;11184;52.444;13.578;2023-08-17T07:09:20;5.30;;;1.48;;
22040;SDS011;11184;52.444;13.578;2023-08-17T07:12:05;3.90;;;1.90;;
22040;SDS011;11184;52.444;13.578;2023-08-17T07:14:49;4.43;;;1.85;;
22040;SDS011;11184;52.444;13.578;2023-08-17T07:17:34;2.88;;;1.52;;
22040;SDS011;11184;52.444;13.578;2023-08-17T07:20:20;2.67;;;1.80;;
22040;SDS011;11184;52.444;13.578;2023-08-17T07:23:05;2.05;;;1.40;;
22040;SDS011;11184;52.444;13.578;2023-08-17T07:25:49;2.45;;;1.50;;
22040;SDS011;11184;52.444;13.578;2023-08-17T07:28:34;4.75;;;1.60;;
22040;SDS011;11184;52.444;13.578;2023-08-17T07:31:18;2.60;;;1.75;;
22040;SDS011;11184;52.444;13.578;2023-08-17T07:34:04;6.45;;;1.80;;
22040;SDS011;11184;52.444;13.578;2023-08-17T07:36:49;3.55;;;1.98;;
22040;SDS011;11184;52.444;13.578;2023-08-17T07:39:33;5.68;;;2.20;;
22040;SDS011;11184;52.444;13.578;2023-08-17T07:42:18;2.58;;;2.05;;
22040;SDS011;11184;52.444;13.578;2023-08-17T07:45:03;2.40;;;1.55;;
22040;SDS011;11184;52.444;13.578;2023-08-17T07:47:51;3.88;;;1.52;;
22040;SDS011;11184;52.444;13.578;2023-08-17T07:50:35;6.25;;;1.85;;
22040;SDS011;11184;52.444;13.578;2023-08-17T07:53:20;3.85;;;1.83;;
22040;SDS011;11184;52.444;13.578;2023-08-17T07:56:04;6.13;;;1.80;;
22040;SDS011;11184;52.444;13.578;2023-08-17T07:58:50;7.10;;;1.83;;
22040;SDS011;11184;52.444;13.578;2023-08-17T08:01:34;2.50;;;1.45;;
22040;SDS011;11184;52.444;13.578;2023-08-17T08:04:19;3.40;;;1.55;;
22040;SDS011;11184;52.444;13.578;2023-08-17T08:07:03;3.38;;;1.85;;
22040;SDS011;11184;52.444;13.578;2023-08-17T08:09:48;3.78;;;1.70;;
22040;SDS011;11184;52.444;13.578;2023-08-17T08:12:32;5.03;;;1.95;;
22040;SDS011;11184;52.444;13.578;2023-08-17T08:15:17;4.57;;;2.13;;
22040;SDS011;11184;52.444;13.578;2023-08-17T08:18:02;3.15;;;2.13;;
22040;SDS011;11184;52.444;13.578;2023-08-17T08:20:47;2.45;;;1.40;;
22040;SDS011;11184;52.444;13.578;2023-08-17T08:23:32;4.55;;;1.73;;
22040;SDS011;11184;52.444;13.578;2023-08-17T08:26:17;4.13;;;1.55;;
22040;SDS011;11184;52.444;13.578;2023-08-17T08:29:02;6.13;;;2.13;;
22040;SDS011;11184;52.444;13.578;2023-08-17T08:31:46;7.13;;;2.13;;
22040;SDS011;11184;52.444;13.578;2023-08-17T08:34:31;6.10;;;2.15;;
22040;SDS011;11184;52.444;13.578;2023-08-17T08:37:15;2.75;;;1.98;;
22040;SDS011;11184;52.444;13.578;2023-08-17T08:40:00;3.30;;;2.75;;
22040;SDS011;11184;52.444;13.578;2023-08-17T08:42:44;3.20;;;2.13;;
22040;SDS011;11184;52.444;13.578;2023-08-17T08:45:29;4.03;;;1.73;;
22040;SDS011;11184;52.444;13.578;2023-08-17T08:48:14;3.92;;;1.42;;
22040;SDS011;11184;52.444;13.578;2023-08-17T08:51:00;4.20;;;1.77;;
22040;SDS011;11184;52.444;13.578;2023-08-17T08:53:45;4.50;;;2.22;;
22040;SDS011;11184;52.444;13.578;2023-08-17T08:56:33;3.72;;;2.38;;
22040;SDS011;11184;52.444;13.578;2023-08-17T08:59:19;4.57;;;2.88;;
22040;SDS011;11184;52.444;13.578;2023-08-17T09:02:04;4.35;;;2.40;;
22040;SDS011;11184;52.444;13.578;2023-08-17T09:04:49;8.35;;;2.42;;
22040;SDS011;11184;52.444;13.578;2023-08-17T09:07:34;3.63;;;2.28;;
22040;SDS011;11184;52.444;13.578;2023-08-17T09:10:19;5.35;;;3.53;;
22040;SDS011;11184;52.444;13.578;2023-08-17T09:13:04;4.13;;;2.70;;
22040;SDS011;11184;52.444;13.578;2023-08-17T09:15:48;3.35;;;2.38;;
22040;SDS011;11184;52.444;13.578;2023-08-17T09:18:34;3.72;;;2.42;;
22040;SDS011;11184;52.444;13.578;2023-08-17T09:21:19;2.33;;;2.05;;
22040;SDS011;11184;52.444;13.578;2023-08-17T09:24:05;4.32;;;2.03;;
22040;SDS011;11184;52.444;13.578;2023-08-17T09:26:51;4.53;;;2.38;;
22040;SDS011;11184;52.444;13.578;2023-08-17T09:29:37;3.10;;;1.88;;
22040;SDS011;11184;52.444;13.578;2023-08-17T09:32:32;3.03;;;1.85;;
22040;SDS011;11184;52.444;13.578;2023-08-17T09:35:17;2.55;;;2.30;;
22040;SDS011;11184;52.444;13.578;2023-08-17T09:38:02;3.13;;;2.08;;
22040;SDS011;11184;52.444;13.578;2023-08-17T09:40:47;2.83;;;2.10;;
22040;SDS011;11184;52.444;13.578;2023-08-17T09:43:32;2.85;;;2.22;;
22040;SDS011;11184;52.444;13.578;2023-08-17T09:46:17;4.97;;;2.30;;
22040;SDS011;11184;52.444;13.578;2023-08-17T09:49:02;3.30;;;1.80;;
22040;SDS011;11184;52.444;13.578;2023-08-17T09:51:48;3.67;;;2.33;;
22040;SDS011;11184;52.444;13.578;2023-08-17T09:54:32;3.38;;;2.10;;
22040;SDS011;11184;52.444;13.578;2023-08-17T09:57:17;2.28;;;1.88;;
22040;SDS011;11184;52.444;13.578;2023-08-17T10:00:02;1.92;;;1.83;;
22040;SDS011;11184;52.444;13.578;2023-08-17T10:02:50;5.85;;;2.10;;
22040;SDS011;11184;52.444;13.578;2023-08-17T10:05:35;5.50;;;2.15;;
22040;SDS011;11184;52.444;13.578;2023-08-17T10:08:22;4.28;;;1.88;;
22040;SDS011;11184;52.444;13.578;2023-08-17T10:11:07;2.65;;;1.77;;
22040;SDS011;11184;52.444;13.578;2023-08-17T10:13:59;3.97;;;2.40;;
22040;SDS011;11184;52.444;13.578;2023-08-17T10:16:49;9.07;;;3.08;;
22040;SDS011;11184;52.444;13.578;2023-08-17T10:19:40;6.05;;;2.28;;
22040;SDS011;11184;52.444;13.578;2023-08-17T10:22:30;2.97;;;2.38;;
22040;SDS011;11184;52.444;13.578;2023-08-17T10:25:15;2.90;;;2.53;;
22040;SDS011;11184;52.444;13.578;2023-08-17T10:28:01;4.72;;;2.38;;
22040;SDS011;11184;52.444;13.578;2023-08-17T10:30:47;4.70;;;2.70;;
22040;SDS011;11184;52.444;13.578;2023-08-17T10:33:32;4.43;;;2.53;;
22040;SDS011;11184;52.444;13.578;2023-08-17T10:36:17;5.90;;;2.50;;
22040;SDS011;11184;52.444;13.578;2023-08-17T10:39:17;5.35;;;4.28;;
22040;SDS011;11184;52.444;13.578;2023-08-17T10:42:02;2.83;;;2.40;;
22040;SDS011;11184;52.444;13.578;2023-08-17T10:44:47;2.95;;;2.45;;
22040;SDS011;11184;52.444;13.578;2023-08-17T10:47:32;2.95;;;2.67;;
22040;SDS011;11184;52.444;13.578;2023-08-17T10:50:23;3.53;;;2.70;;
22040;SDS011;11184;52.444;13.578;2023-08-17T10:53:09;8.27;;;3.05;;
22040;SDS011;11184;52.444;13.578;2023-08-17T10:55:56;3.17;;;2.88;;
22040;SDS011;11184;52.444;13.578;2023-08-17T10:58:44;5.55;;;2.92;;
22040;SDS011;11184;52.444;13.578;2023-08-17T11:01:32;4.80;;;2.65;;
22040;SDS011;11184;52.444;13.578;2023-08-17T11:04:17;5.50;;;3.20;;
22040;SDS011;11184;52.444;13.578;2023-08-17T11:07:02;5.20;;;3.33;;
22040;SDS011;11184;52.444;13.578;2023-08-17T11:09:47;3.15;;;2.85;;
22040;SDS011;11184;52.444;13.578;2023-08-17T11:12:32;3.40;;;3.10;;
22040;SDS011;11184;52.444;13.578;2023-08-17T11:15:16;5.72;;;3.15;;
22040;SDS011;11184;52.444;13.578;2023-08-17T11:18:01;3.80;;;3.20;;
22040;SDS011;11184;52.444;13.578;2023-08-17T11:20:45;3.95;;;3.17;;
22040;SDS011;11184;52.444;13.578;2023-08-17T11:23:32;3.53;;;2.90;;
22040;SDS011;11184;52.444;13.578;2023-08-17T11:26:18;5.15;;;3.38;;
22040;SDS011;11184;52.444;13.578;2023-08-17T11:29:03;4.22;;;3.83;;
22040;SDS011;11184;52.444;13.578;2023-08-17T11:31:49;4.50;;;3.83;;
22040;SDS011;11184;52.444;13.578;2023-08-17T11:34:35;5.95;;;3.75;;
22040;SDS011;11184;52.444;13.578;2023-08-17T11:37:20;5.47;;;3.88;;
22040;SDS011;11184;52.444;13.578;2023-08-17T11:40:05;3.47;;;3.15;;
22040;SDS011;11184;52.444;13.578;2023-08-17T11:42:52;4.70;;;3.28;;
22040;SDS011;11184;52.444;13.578;2023-08-17T11:45:36;3.42;;;3.13;;
22040;SDS011;11184;52.444;13.578;2023-08-17T11:48:21;4.25;;;3.85;;
22040;SDS011;11184;52.444;13.578;2023-08-17T11:51:06;3.70;;;2.67;;
22040;SDS011;11184;52.444;13.578;2023-08-17T11:53:50;4.05;;;3.72;;
22040;SDS011;11184;52.444;13.578;2023-08-17T11:56:35;3.72;;;3.42;;
22040;SDS011;11184;52.444;13.578;2023-08-17T11:59:21;2.90;;;2.60;;
22040;SDS011;11184;52.444;13.578;2023-08-17T12:02:05;5.18;;;3.45;;
22040;SDS011;11184;52.444;13.578;2023-08-17T12:04:50;4.15;;;3.75;;
22040;SDS011;11184;52.444;13.578;2023-08-17T12:07:35;5.90;;;3.22;;
22040;SDS011;11184;52.444;13.578;2023-08-17T12:10:20;3.72;;;3.40;;
22040;SDS011;11184;52.444;13.578;2023-08-17T12:13:06;6.45;;;5.10;;
22040;SDS011;11184;52.444;13.578;2023-08-17T12:15:50;3.63;;;3.33;;
22040;SDS011;11184;52.444;13.578;2023-08-17T12:18:35;4.13;;;3.55;;
22040;SDS011;11184;52.444;13.578;2023-08-17T12:21:23;3.45;;;3.15;;
22040;SDS011;11184;52.444;13.578;2023-08-17T12:24:08;4.38;;;3.83;;
22040;SDS011;11184;52.444;13.578;2023-08-17T12:26:56;6.53;;;4.40;;
22040;SDS011;11184;52.444;13.578;2023-08-17T12:29:47;4.35;;;3.90;;
22040;SDS011;11184;52.444;13.578;2023-08-17T12:32:32;4.47;;;3.70;;
22040;SDS011;11184;52.444;13.578;2023-08-17T12:35:17;4.30;;;3.97;;
22040;SDS011;11184;52.444;13.578;2023-08-17T12:38:03;5.32;;;4.55;;
22040;SDS011;11184;52.444;13.578;2023-08-17T12:40:47;7.03;;;4.00;;
22040;SDS011;11184;52.444;13.578;2023-08-17T12:43:32;4.43;;;3.80;;
22040;SDS011;11184;52.444;13.578;2023-08-17T12:46:16;4.65;;;4.20;;
22040;SDS011;11184;52.444;13.578;2023-08-17T12:49:01;6.13;;;4.38;;
22040;SDS011;11184;52.444;13.578;2023-08-17T12:51:46;4.90;;;4.25;;
22040;SDS011;11184;52.444;13.578;2023-08-17T12:54:31;5.50;;;4.47;;
22040;SDS011;11184;52.444;13.578;2023-08-17T12:57:15;4.03;;;3.72;;
22040;SDS011;11184;52.444;13.578;2023-08-17T13:00:00;3.92;;;3.63;;
22040;SDS011;11184;52.444;13.578;2023-08-17T13:02:45;3.67;;;3.38;;
22040;SDS011;11184;52.444;13.578;2023-08-17T13:05:33;5.85;;;4.50;;
22040;SDS011;11184;52.444;13.578;2023-08-17T13:08:17;4.13;;;3.60;;
22040;SDS011;11184;52.444;13.578;2023-08-17T13:11:02;4.82;;;4.32;;
22040;SDS011;11184;52.444;13.578;2023-08-17T13:13:47;4.65;;;4.05;;
22040;SDS011;11184;52.444;13.578;2023-08-17T13:16:31;4.22;;;3.72;;
22040;SDS011;11184;52.444;13.578;2023-08-17T13:19:16;4.07;;;3.67;;
22040;SDS011;11184;52.444;13.578;2023-08-17T13:22:00;3.95;;;3.65;;
22040;SDS011;11184;52.444;13.578;2023-08-17T13:24:46;4.13;;;3.80;;
22040;SDS011;11184;52.444;13.578;2023-08-17T13:27:31;5.88;;;3.38;;
22040;SDS011;11184;52.444;13.578;2023-08-17T13:30:16;3.70;;;3.40;;
22040;SDS011;11184;52.444;13.578;2023-08-17T13:33:01;4.22;;;3.80;;
22040;SDS011;11184;52.444;13.578;2023-08-17T13:35:45;4.07;;;3.67;;
22040;SDS011;11184;52.444;13.578;2023-08-17T13:38:30;3.58;;;3.28;;
22040;SDS011;11184;52.444;13.578;2023-08-17T13:41:15;5.03;;;3.53;;
22040;SDS011;11184;52.444;13.578;2023-08-17T13:43:59;3.80;;;3.38;;
22040;SDS011;11184;52.444;13.578;2023-08-17T13:46:46;3.95;;;3.60;;
22040;SDS011;11184;52.444;13.578;2023-08-17T13:49:30;3.17;;;2.88;;
22040;SDS011;11184;52.444;13.578;2023-08-17T13:52:15;3.67;;;3.38;;
22040;SDS011;11184;52.444;13.578;2023-08-17T13:54:59;4.00;;;3.28;;
22040;SDS011;11184;52.444;13.578;2023-08-17T13:57:44;6.35;;;3.05;;
22040;SDS011;11184;52.444;13.578;2023-08-17T14:00:30;4.30;;;3.67;;
22040;SDS011;11184;52.444;13.578;2023-08-17T14:03:14;2.83;;;2.55;;
22040;SDS011;11184;52.444;13.578;2023-08-17T14:05:59;3.05;;;2.50;;
22040;SDS011;11184;52.444;13.578;2023-08-17T14:08:43;3.08;;;2.80;;
22040;SDS011;11184;52.444;13.578;2023-08-17T14:11:28;2.90;;;2.70;;
22040;SDS011;11184;52.444;13.578;2023-08-17T14:14:12;3.13;;;2.72;;
22040;SDS011;11184;52.444;13.578;2023-08-17T14:16:57;2.85;;;2.65;;
22040;SDS011;11184;52.444;13.578;2023-08-17T14:19:41;3.70;;;2.92;;
22040;SDS011;11184;52.444;13.578;2023-08-17T14:22:26;6.32;;;2.55;;
22040;SDS011;11184;52.444;13.578;2023-08-17T14:25:11;3.60;;;2.95;;
22040;SDS011;11184;52.444;13.578;2023-08-17T14:27:57;5.32;;;3.05;;
22040;SDS011;11184;52.444;13.578;2023-08-17T14:30:42;3.65;;;2.78;;
22040;SDS011;11184;52.444;13.578;2023-08-17T14:33:27;3.60;;;3.17;;
22040;SDS011;11184;52.444;13.578;2023-08-17T14:36:12;4.65;;;2.80;;
22040;SDS011;11184;52.444;13.578;2023-08-17T14:38:56;3.97;;;3.05;;
22040;SDS011;11184;52.444;13.578;2023-08-17T14:41:41;9.90;;;3.00;;
22040;SDS011;11184;52.444;13.578;2023-08-17T14:44:25;2.95;;;2.75;;
22040;SDS011;11184;52.444;13.578;2023-08-17T14:47:10;2.90;;;2.65;;
22040;SDS011;11184;52.444;13.578;2023-08-17T14:49:54;7.90;;;3.47;;
22040;SDS011;11184;52.444;13.578;2023-08-17T14:52:39;4.00;;;3.25;;
22040;SDS011;11184;52.444;13.578;2023-08-17T14:55:24;2.40;;;2.20;;
22040;SDS011;11184;52.444;13.578;2023-08-17T14:58:09;3.45;;;2.55;;
22040;SDS011;11184;52.444;13.578;2023-08-17T15:00:53;3.95;;;3.03;;
22040;SDS011;11184;52.444;13.578;2023-08-17T15:03:38;5.53;;;2.90;;
22040;SDS011;11184;52.444;13.578;2023-08-17T15:06:23;5.13;;;3.05;;
22040;SDS011;11184;52.444;13.578;2023-08-17T15:09:08;3.50;;;3.20;;
22040;SDS011;11184;52.444;13.578;2023-08-17T15:11:53;4.68;;;3.47;;
22040;SDS011;11184;52.444;13.578;2023-08-17T15:14:37;5.90;;;2.97;;
22040;SDS011;11184;52.444;13.578;2023-08-17T15:17:22;2.78;;;2.58;;
22040;SDS011;11184;52.444;13.578;2023-08-17T15:20:07;4.32;;;2.97;;
22040;SDS011;11184;52.444;13.578;2023-08-17T15:22:51;3.13;;;2.90;;
22040;SDS011;11184;52.444;13.578;2023-08-17T15:25:36;3.50;;;3.20;;
22040;SDS011;11184;52.444;13.578;2023-08-17T15:28:21;3.65;;;2.85;;
22040;SDS011;11184;52.444;13.578;2023-08-17T15:31:05;3.50;;;3.20;;
22040;SDS011;11184;52.444;13.578;2023-08-17T15:33:55;2.78;;;1.88;;
22040;SDS011;11184;52.444;13.578;2023-08-17T15:36:40;3.53;;;2.88;;
22040;SDS011;11184;52.444;13.578;2023-08-17T15:39:25;3.33;;;3.03;;
22040;SDS011;11184;52.444;13.578;2023-08-17T15:42:09;2.45;;;2.08;;
22040;SDS011;11184;52.444;13.578;2023-08-17T15:44:54;6.13;;;2.40;;
22040;SDS011;11184;52.444;13.578;2023-08-17T15:47:39;2.92;;;2.30;;
22040;SDS011;11184;52.444;13.578;2023-08-17T15:50:23;3.88;;;2.92;;
22040;SDS011;11184;52.444;13.578;2023-08-17T15:53:08;3.67;;;3.28;;
22040;SDS011;11184;52.444;13.578;2023-08-17T15:55:53;5.25;;;3.10;;
22040;SDS011;11184;52.444;13.578;2023-08-17T15:58:37;3.08;;;2.60;;
22040;SDS011;11184;52.444;13.578;2023-08-17T16:01:22;3.08;;;2.83;;
22040;SDS011;11184;52.444;13.578;2023-08-17T16:04:07;3.90;;;3.25;;
22040;SDS011;11184;52.444;13.578;2023-08-17T16:06:51;8.93;;;2.95;;
22040;SDS011;11184;52.444;13.578;2023-08-17T16:09:37;5.13;;;3.88;;
22040;SDS011;11184;52.444;13.578;2023-08-17T16:12:22;3.78;;;3.17;;
22040;SDS011;11184;52.444;13.578;2023-08-17T16:15:06;3.58;;;3.17;;
22040;SDS011;11184;52.444;13.578;2023-08-17T16:17:51;3.80;;;3.03;;